Terminal Aerodrome Forecast
Issued by NWS

Home | Current Version | Previous Version | Text Only | Print | Product List | Glossary On
Versions: 1 2 3 4 5 6 7 8 9 10 11 12 13 14
000
FTUS44 KSJT 312343 CCA
TAFSOA
TAF COR
KSOA 312343Z 0100/0124 16011KT P6SM VCTS BKN040CB BKN250
     FM010500 13006KT P6SM VCSH BKN040
     FM010700 15005KT P6SM VCSH SCT015
     FM010900 16004KT P6SM VCSH BKN015
     FM011600 VRB04KT P6SM VCSH SCT030 BKN040=

USA.gov is the U.S. government's official web portal to all federal, state and local government web resources and services.